Minot Air Force Base Minot US
ICAO: KMIB
IATA: MIB
Category: Medium
Scheduled Services: No

Elevation: 1667 ft
TransAlt. 18000 ft.

Airport Communications:
APP:119.6
ATIS:27.88
CLNC DEL:32.62
DEP:119.6
GND:134
PMSV METRO:34.25
COMD POST:32.1
PTD:37.22
TWR:120.65

KMIB Zoom In..

If Map Doesn't Load, Click Here

Runways:

(A) RW 11 length 13197 ft width 300 ft
ILS 109.90 / hdg 115

(B) RW 29 length 13197 ft width 300 ft
ILS 109.90 / hdg 295

Location; KMIB
Day. 23 / Time. 07.56 Zulu
* Altimeter: 30.07
* Temperature: 03° c. 37.4°f.
* Wind from: 070° Speed 15 kn.
Dewpoint: 01° c.
Visibility: 10 Statute Miles.
Clouds: Overcast 800 ft.

KMIB 230756Z AUTO 07015KT 10SM OVC008 03/01 A3007 RMK AO2 SLP202 T00280010 $


Wind From 070°
Speed 15 kn.

 
 
jpsmedia.com for Web Design worldairports.se 2018   terms of use